map of PWK home
PWK - Airport
Location
City:  Chicago/Prospect Heights/Wheeling, Illinois, United States
Name:Chicago Executive Airport
Old (Alt.):Palwaukee Municipal Airport
ICAO:KPWK
IATA:PWK
FAA LID:PWK

Details
Type:Airport (Airfield)
Use:Public/Civil, International (customs landing rights)
Latitude:4206'51"N (42.114278)
Longitude:8754'05"W (-87.901527)
Datum:WGS 1984
Elevation:646 ft (197 m)
Variation:3.74W (WMM2015v2 magnetic declination)
-0.03 annual change
Runways:3
Longest:5001 × 150 ft (1524 × 45.5 m), paved

Time
Time Zone:UTC-6 (DST-5)
Local Time:

Weather
METAR:KPWK 041352Z 17008KT 10SM BKN035 BKN044 OVC070 08/05 A2968 RMK AO2 SLP053 T00780050

Related Locations
Nearby:
Farthest:YAUG: 11081 mi / 17834 km
Augusta [Augusta Airport], WA, AU

Find:

   beyond  
but within

Other Information
Maps:
NOTAMs:
Links:
Sources:

  
  • flag of United States
  • flag of Illinois
  

Airport Diagram

Airport diagram for PWK

Airport diagram PDF from FAA

Sectional Chart

Flight Planning
at skyvector.com

Satellite Image

Google Maps Satellite view

 

Copyright © 2004-2019 Karl L. Swartz. All rights reserved.
The Great Circle Mapper name and logo are trademarks of the Great Circle Mapper.
All other trademarks mentioned herein belong to their respective owners.
Please see credits for attibutions and further copyright information.

  Follow gcmap on Facebook Follow gcmap on Twitter GCmap on LinkedIn

hCard Microformat

Geo Microformat